Bassett, Minnesota
Current Conditions -  °F | °C
As of 12:34 PM on Monday 26 Jan 2015 (Local Time) from KTWM Reporting Station
Overcast Overcast  
Wind Chill: 27°   Ceiling: 600
Heat Index: 27°   Visibility: 7mi
Dew Point: 21°   Wind: 0mph
Humidity: 80%   Direction: NA
Pressure: 29.65"   Gusts: NA
Location:  47.3998°N, 91.9141°W
Report Text: KTWM 261834Z AUTO 00000KT 7SM OVC006 M03/M06 A2965 RMK AO2
Loading
Personal Weather Stations






























Interactive Weather Map New forecast layout! Learn more

10-Day Weather Forecast

Advertisements
Track Severe Weather on mobile